Time;durP1;ratioP1;P1;durP2;ratioP2;P2;SDS_P1;SDS_P2;PMS_P1;PMS_P2;Temp;Humidity;BMP_temperature;BMP_pressure;BME280_temperature;BME280_humidity;BME280_pressure;Samples;Min_cycle;Max_cycle;Signal;HPM_P1;HPM_P2
2021/01/22 00:00:08;;;;;;;24.67;11.05;;;;;;;3.89;79.11;94117.41;1029004;28;20278;-76
2021/01/22 00:00:42;;;;;;;22.00;10.50;;;;;;;3.87;79.26;94121.38;1026794;28;20271;-71
2021/01/22 00:01:13;;;;;;;38.05;17.67;;;;;;;3.80;79.35;94126.91;1028541;28;20350;-71
2021/01/22 00:01:45;;;;;;;35.65;16.63;;;;;;;3.77;80.16;94127.47;1028426;28;20125;-70
2021/01/22 00:02:16;;;;;;;26.90;13.45;;;;;;;3.73;80.25;94124.63;1028486;28;20254;-71
2021/01/22 00:02:48;;;;;;;25.30;13.13;;;;;;;3.75;80.23;94129.59;1028642;28;20262;-70
2021/01/22 00:03:20;;;;;;;24.83;11.80;;;;;;;3.72;80.45;94130.91;1029969;28;20399;-71
2021/01/22 00:03:51;;;;;;;19.35;10.07;;;;;;;3.70;81.02;94124.38;1032648;28;20272;-71
2021/01/22 00:04:21;;;;;;;15.13;8.18;;;;;;;3.69;81.04;94128.06;1033174;28;20245;-71
2021/01/22 00:04:52;;;;;;;58.35;25.88;;;;;;;3.67;81.11;94127.56;1036654;28;20018;-71
2021/01/22 00:05:23;;;;;;;32.50;14.63;;;;;;;3.62;81.53;94117.91;1036761;28;20355;-70
2021/01/22 00:05:53;;;;;;;55.03;24.52;;;;;;;3.62;81.59;94117.91;1032566;28;20341;-71
2021/01/22 00:06:24;;;;;;;31.73;14.90;;;;;;;3.62;81.78;94119.75;1028538;28;20038;-70
2021/01/22 00:06:55;;;;;;;30.08;14.48;;;;;;;3.64;81.83;94112.41;1028402;28;20035;-71
2021/01/22 00:07:27;;;;;;;53.60;24.30;;;;;;;3.61;81.64;94115.56;1028256;28;20739;-71
2021/01/22 00:07:59;;;;;;;55.67;24.40;;;;;;;3.56;81.98;94117.16;1032870;28;20265;-71
2021/01/22 00:08:32;;;;;;;58.25;26.85;;;;;;;3.54;82.17;94126.34;1036884;28;20029;-70
2021/01/22 00:09:06;;;;;;;60.03;27.65;;;;;;;3.54;82.10;94126.34;1032231;28;20277;-71
2021/01/22 00:09:39;;;;;;;19.92;10.80;;;;;;;3.48;82.54;94117.75;1032552;28;20254;-71
2021/01/22 00:10:11;;;;;;;18.70;9.48;;;;;;;3.44;82.83;94118.59;1032524;28;20297;-70
2021/01/22 00:10:43;;;;;;;14.82;7.55;;;;;;;3.45;82.79;94114.91;1032575;28;20257;-70
2021/01/22 00:11:14;;;;;;;9.80;5.40;;;;;;;3.38;82.48;94112.63;1032337;28;20649;-70
2021/01/22 00:11:47;;;;;;;7.65;4.55;;;;;;;3.43;82.64;94112.59;1033356;28;20250;-72
2021/01/22 00:12:19;;;;;;;6.88;3.85;;;;;;;3.40;82.41;94113.13;1036945;28;20618;-71
2021/01/22 00:12:49;;;;;;;4.93;3.67;;;;;;;3.31;82.93;94114.75;1036532;28;20336;-71
2021/01/22 00:13:19;;;;;;;6.22;4.28;;;;;;;3.36;82.83;94106.88;1032475;28;20268;-70
2021/01/22 00:13:50;;;;;;;7.53;4.95;;;;;;;3.37;82.73;94111.84;1028501;28;20018;-70
2021/01/22 00:14:21;;;;;;;12.65;6.40;;;;;;;3.40;82.29;94104.50;1023993;29;20040;-70
2021/01/22 00:14:51;;;;;;;12.40;7.00;;;;;;;3.41;82.46;94106.84;1024626;28;20046;-70
2021/01/22 00:15:22;;;;;;;20.40;10.30;;;;;;;3.45;82.09;94112.28;1028674;28;20471;-71
2021/01/22 00:15:52;;;;;;;20.92;9.95;;;;;;;3.45;82.14;94114.91;1032515;28;20088;-70
2021/01/22 00:16:24;;;;;;;14.50;8.00;;;;;;;3.48;82.17;94117.00;1036900;28;20018;-71
2021/01/22 00:16:55;;;;;;;7.47;4.80;;;;;;;3.45;82.36;94112.28;1036841;28;20022;-70
2021/01/22 00:17:25;;;;;;;7.30;4.85;;;;;;;3.47;82.18;94118.03;1036793;28;20315;-71
2021/01/22 00:17:56;;;;;;;12.00;6.35;;;;;;;3.46;82.19;94117.25;1040650;28;20009;-72
2021/01/22 00:18:27;;;;;;;21.90;9.88;;;;;;;3.50;82.10;94122.72;1036465;28;20097;-71
2021/01/22 00:18:58;;;;;;;16.30;8.18;;;;;;;3.52;81.78;94123.22;1027812;28;20378;-71
2021/01/22 00:19:29;;;;;;;11.10;5.90;;;;;;;3.47;82.08;94121.44;1020038;29;20142;-70
2021/01/22 00:20:02;;;;;;;10.38;6.43;;;;;;;3.49;82.40;94129.00;1020864;29;20963;-71
2021/01/22 00:20:32;;;;;;;10.55;6.05;;;;;;;3.51;82.30;94121.69;1020439;29;20267;-72
2021/01/22 00:21:03;;;;;;;13.40;7.05;;;;;;;3.53;82.54;94125.56;1021176;29;20267;-72
2021/01/22 00:21:33;;;;;;;14.82;8.63;;;;;;;3.54;82.44;94131.59;1020642;29;20034;-73
2021/01/22 00:22:04;;;;;;;21.27;10.23;;;;;;;3.53;82.63;94130.03;1016619;29;20032;-72
2021/01/22 00:22:35;;;;;;;17.77;8.90;;;;;;;3.54;82.51;94131.59;1024559;29;20027;-71
2021/01/22 00:23:07;;;;;;;4.93;3.97;;;;;;;3.40;83.09;94136.66;1024751;28;20278;-70
2021/01/22 00:23:38;;;;;;;5.75;3.75;;;;;;;3.27;83.37;94132.84;1028745;28;20495;-70
2021/01/22 00:24:09;;;;;;;4.03;3.40;;;;;;;3.14;84.86;94141.28;1032703;28;20356;-69
2021/01/22 00:24:41;;;;;;;7.85;4.50;;;;;;;3.15;84.62;94135.81;1028470;28;20270;-71
2021/01/22 00:25:12;;;;;;;9.32;5.28;;;;;;;3.18;84.20;94137.09;1028279;28;20436;-72
2021/01/22 00:25:42;;;;;;;13.63;7.75;;;;;;;3.23;84.01;94137.06;1024408;29;20336;-71
2021/01/22 00:26:12;;;;;;;33.50;14.68;;;;;;;3.25;83.96;94131.53;1024776;28;20055;-69
2021/01/22 00:26:43;;;;;;;9.63;5.13;;;;;;;3.23;84.05;94131.03;1028559;28;20031;-70
2021/01/22 00:27:13;;;;;;;5.03;3.35;;;;;;;3.23;84.26;94129.22;1028659;28;20079;-72
2021/01/22 00:27:44;;;;;;;4.38;3.30;;;;;;;3.24;84.00;94132.59;1032818;28;20356;-70
2021/01/22 00:28:14;;;;;;;3.90;3.00;;;;;;;3.25;83.96;94144.59;1032796;28;20033;-71
2021/01/22 00:28:45;;;;;;;7.97;4.72;;;;;;;3.26;84.07;94154.78;1028326;28;20023;-69
2021/01/22 00:29:17;;;;;;;25.95;11.70;;;;;;;3.29;83.94;94172.56;1028414;28;20023;-70
2021/01/22 00:29:47;;;;;;;15.40;7.57;;;;;;;3.32;84.17;94177.22;1027821;28;20026;-70
2021/01/22 00:30:18;;;;;;;12.18;6.63;;;;;;;3.33;84.23;94185.84;1024949;28;20263;-69
2021/01/22 00:30:49;;;;;;;9.43;5.00;;;;;;;3.33;84.38;94204.16;1028555;28;20033;-71
2021/01/22 00:31:19;;;;;;;12.75;6.05;;;;;;;3.33;84.11;94212.78;1032628;28;20023;-70
2021/01/22 00:31:52;;;;;;;10.32;5.10;;;;;;;3.30;84.75;94202.09;1031816;28;20495;-69
2021/01/22 00:32:23;;;;;;;4.90;3.28;;;;;;;3.26;84.72;94194.00;1036453;28;20264;-69
2021/01/22 00:32:53;;;;;;;4.15;2.75;;;;;;;3.33;83.62;94191.06;1036081;28;20257;-70
2021/01/22 00:33:24;;;;;;;4.53;2.70;;;;;;;3.32;83.74;94184.31;1033006;28;20018;-77
2021/01/22 00:33:54;;;;;;;3.70;2.50;;;;;;;3.31;83.61;94187.97;1036358;28;20037;-72
2021/01/22 00:34:26;;;;;;;3.13;2.22;;;;;;;3.43;82.90;94201.50;1037857;28;20014;-71
2021/01/22 00:34:56;;;;;;;3.05;2.20;;;;;;;3.44;83.02;94205.66;1040750;28;20025;-70
2021/01/22 00:35:27;;;;;;;2.60;1.98;;;;;;;3.40;83.43;94204.63;1040683;28;20260;-70
2021/01/22 00:35:57;;;;;;;2.90;2.22;;;;;;;3.36;83.18;94204.41;1040946;28;20018;-71
2021/01/22 00:36:28;;;;;;;2.72;2.40;;;;;;;3.33;83.71;94204.94;1040948;28;20025;-70
2021/01/22 00:36:58;;;;;;;3.13;2.45;;;;;;;3.38;83.20;94209.34;1040632;28;20018;-70
2021/01/22 00:37:29;;;;;;;4.22;2.78;;;;;;;3.43;83.06;94205.91;1040914;28;20026;-70
2021/01/22 00:38:01;;;;;;;4.30;3.10;;;;;;;3.41;83.13;94211.44;1040941;28;20029;-70
2021/01/22 00:38:31;;;;;;;6.70;3.58;;;;;;;3.41;83.43;94208.03;1041037;28;20093;-71
2021/01/22 00:39:03;;;;;;;5.38;2.70;;;;;;;3.40;83.34;94214.31;1040986;28;20291;-70
2021/01/22 00:39:34;;;;;;;4.95;2.83;;;;;;;3.44;83.62;94212.72;1039877;28;20029;-71
2021/01/22 00:40:06;;;;;;;5.18;3.30;;;;;;;3.39;83.61;94205.72;1040886;28;20306;-69
2021/01/22 00:40:39;;;;;;;4.90;3.42;;;;;;;3.40;83.66;94209.88;1036616;28;20648;-75
2021/01/22 00:41:12;;;;;;;5.00;2.85;;;;;;;3.41;83.49;94213.25;1031971;28;20305;-72
2021/01/22 00:41:43;;;;;;;8.48;4.32;;;;;;;3.43;83.56;94219.78;1028356;28;20358;-71
2021/01/22 00:42:14;;;;;;;6.13;3.00;;;;;;;3.43;83.59;94214.56;1024528;29;20255;-73
2021/01/22 00:42:45;;;;;;;4.50;3.05;;;;;;;3.40;83.92;94214.31;1025496;28;20267;-70
2021/01/22 00:43:17;;;;;;;5.18;2.90;;;;;;;3.36;83.66;94214.09;1032832;28;20037;-70
2021/01/22 00:43:50;;;;;;;12.40;4.70;;;;;;;3.37;83.67;94213.81;1036121;28;20045;-70
2021/01/22 00:44:21;;;;;;;4.75;3.58;;;;;;;3.38;83.72;94209.34;1040774;28;20268;-70
2021/01/22 00:44:52;;;;;;;5.75;3.47;;;;;;;3.34;83.54;94211.72;1040378;28;20260;-70
2021/01/22 00:45:22;;;;;;;6.30;4.13;;;;;;;3.33;83.25;94209.38;1028292;28;20267;-69
2021/01/22 00:45:54;;;;;;;9.05;5.50;;;;;;;3.29;83.19;94209.16;1028431;28;20030;-70
2021/01/22 00:46:25;;;;;;;6.90;4.72;;;;;;;3.24;83.36;94205.78;1024333;29;20038;-71
2021/01/22 00:46:57;;;;;;;8.70;6.25;;;;;;;3.24;82.76;94211.78;1020743;29;20298;-71
2021/01/22 00:47:28;;;;;;;8.77;5.82;;;;;;;3.18;82.75;94202.44;1020493;29;20470;-71
2021/01/22 00:47:58;;;;;;;9.73;7.03;;;;;;;3.16;82.62;94205.31;1024300;29;20267;-69
2021/01/22 00:48:29;;;;;;;13.38;8.18;;;;;;;3.14;83.04;94206.63;1020637;29;20028;-70
2021/01/22 00:49:01;;;;;;;12.52;7.32;;;;;;;3.15;82.91;94206.38;1024740;28;20038;-70
2021/01/22 00:49:36;;;;;;;9.05;6.43;;;;;;;3.17;82.84;94206.88;1020891;28;20032;-69
2021/01/22 00:50:07;;;;;;;7.68;5.55;;;;;;;3.14;82.82;94198.78;1024481;29;20763;-70
2021/01/22 00:50:37;;;;;;;9.45;5.93;;;;;;;3.09;83.03;94199.59;1024320;29;20281;-70
2021/01/22 00:51:08;;;;;;;7.90;6.13;;;;;;;3.07;82.83;94198.28;1023681;29;20385;-69
2021/01/22 00:51:39;;;;;;;8.38;6.05;;;;;;;3.02;83.52;94193.88;1032415;28;20022;-70
2021/01/22 00:52:09;;;;;;;8.00;6.13;;;;;;;2.97;83.71;94192.09;1020203;29;20024;-71
2021/01/22 00:52:40;;;;;;;10.20;7.05;;;;;;;3.02;83.59;94193.88;1020479;29;20090;-71
2021/01/22 00:53:10;;;;;;;13.38;7.20;;;;;;;3.06;83.41;94196.75;1020453;29;20125;-71
2021/01/22 00:53:41;;;;;;;11.23;7.20;;;;;;;3.05;83.36;94195.94;1020413;29;20080;-69
2021/01/22 00:54:11;;;;;;;10.18;7.95;;;;;;;3.03;83.36;94189.44;1024363;28;20423;-71
2021/01/22 00:54:42;;;;;;;11.15;7.90;;;;;;;2.97;83.36;94178.22;1024445;29;20027;-71
2021/01/22 00:55:12;;;;;;;11.02;7.97;;;;;;;2.97;83.58;94192.09;1024655;28;20474;-73
2021/01/22 00:55:44;;;;;;;10.38;7.32;;;;;;;2.93;83.44;94185.84;1020676;28;20019;-71
2021/01/22 00:56:15;;;;;;;12.43;6.80;;;;;;;2.95;83.65;94182.94;1024746;28;20106;-71
2021/01/22 00:56:45;;;;;;;9.40;6.68;;;;;;;2.96;83.48;94180.06;1028313;28;20266;-70
2021/01/22 00:57:21;;;;;;;11.02;8.10;;;;;;;2.94;83.47;94182.16;1025186;28;20417;-72
2021/01/22 00:57:53;;;;;;;12.07;7.40;;;;;;;2.97;83.84;94181.63;1029431;28;20023;-70
2021/01/22 00:58:24;;;;;;;8.43;6.70;;;;;;;2.96;83.54;94184.50;1028339;28;20316;-72
2021/01/22 00:58:57;;;;;;;8.75;7.00;;;;;;;3.01;83.55;94189.69;1020260;29;20827;-70
2021/01/22 00:59:28;;;;;;;11.65;7.90;;;;;;;3.01;83.38;94191.53;1016962;29;20040;-70
2021/01/22 00:59:58;;;;;;;14.00;9.35;;;;;;;2.97;83.28;94193.91;1016500;29;20257;-72
2021/01/22 01:00:29;;;;;;;11.80;8.35;;;;;;;2.98;83.45;94198.09;1016876;29;20029;-71
2021/01/22 01:01:00;;;;;;;12.13;8.90;;;;;;;2.96;83.35;94189.75;1018898;29;20062;-73
2021/01/22 01:01:31;;;;;;;12.43;8.68;;;;;;;2.93;83.70;94198.09;1021261;28;20259;-70
2021/01/22 01:02:02;;;;;;;10.48;7.50;;;;;;;2.90;83.65;94204.66;1027788;28;20046;-71
2021/01/22 01:02:33;;;;;;;9.90;7.68;;;;;;;2.91;83.75;94200.97;1024703;28;20044;-70
2021/01/22 01:03:04;;;;;;;9.13;7.03;;;;;;;2.91;83.49;94200.19;1032582;28;20450;-71
2021/01/22 01:03:34;;;;;;;10.23;7.03;;;;;;;2.89;83.53;94200.47;1032228;28;20253;-70
2021/01/22 01:04:06;;;;;;;10.38;7.88;;;;;;;2.90;83.36;94190.81;1022538;29;20031;-70
2021/01/22 01:04:36;;;;;;;9.88;7.50;;;;;;;2.87;83.51;94189.50;1016460;29;20056;-73
2021/01/22 01:05:07;;;;;;;12.25;8.35;;;;;;;2.84;83.16;94182.22;1016755;29;20312;-70
2021/01/22 01:05:40;;;;;;;9.35;6.68;;;;;;;2.84;83.27;94191.91;1016483;29;20046;-71
2021/01/22 01:06:11;;;;;;;11.25;7.80;;;;;;;2.79;83.18;94190.06;1017294;29;20095;-71
2021/01/22 01:06:42;;;;;;;9.95;7.78;;;;;;;2.78;83.00;94184.06;1023913;29;20298;-70
2021/01/22 01:07:12;;;;;;;10.23;8.43;;;;;;;2.75;83.35;94187.19;1024551;28;20127;-69
2021/01/22 01:07:43;;;;;;;9.75;8.05;;;;;;;2.73;83.43;94186.69;1020445;29;20271;-70
2021/01/22 01:08:13;;;;;;;12.32;7.60;;;;;;;2.71;83.63;94182.78;1016603;29;20024;-72
2021/01/22 01:08:43;;;;;;;9.98;7.63;;;;;;;2.73;83.53;94180.69;1016655;29;20024;-70
2021/01/22 01:09:14;;;;;;;11.13;8.40;;;;;;;2.72;83.42;94189.59;1020664;28;20031;-70
2021/01/22 01:09:44;;;;;;;14.00;8.50;;;;;;;2.74;83.34;94180.44;1027997;28;20098;-69
2021/01/22 01:10:15;;;;;;;12.52;9.57;;;;;;;2.67;83.57;94184.38;1024240;29;20027;-71
2021/01/22 01:10:46;;;;;;;14.60;10.13;;;;;;;2.64;83.47;94182.31;1023799;29;20035;-69
2021/01/22 01:11:17;;;;;;;13.15;9.48;;;;;;;2.62;83.74;94179.97;1020421;29;20052;-71
2021/01/22 01:11:48;;;;;;;12.40;8.98;;;;;;;2.60;83.98;94179.47;1017374;29;20274;-71
2021/01/22 01:12:18;;;;;;;14.60;10.02;;;;;;;2.62;83.89;94176.56;1024504;28;20038;-71
2021/01/22 01:12:49;;;;;;;14.77;11.07;;;;;;;2.62;83.92;94179.97;1024349;28;20035;-70
2021/01/22 01:13:19;;;;;;;13.75;10.05;;;;;;;2.64;83.77;94183.09;1028476;28;20031;-70
2021/01/22 01:13:49;;;;;;;13.13;9.88;;;;;;;2.66;83.16;94175.00;1028327;28;20460;-70
2021/01/22 01:14:20;;;;;;;10.57;8.88;;;;;;;2.62;83.67;94171.34;1024382;29;20448;-71
2021/01/22 01:14:52;;;;;;;12.50;8.98;;;;;;;2.63;83.64;94181.50;1023930;29;20035;-70
2021/01/22 01:15:22;;;;;;;8.52;7.53;;;;;;;2.63;83.68;94175.50;1020479;29;20268;-70
2021/01/22 01:15:54;;;;;;;8.55;7.57;;;;;;;2.63;83.62;94168.47;1020807;29;20035;-70
2021/01/22 01:16:25;;;;;;;7.85;7.03;;;;;;;2.64;83.30;94171.88;1020531;29;20367;-71
2021/01/22 01:16:55;;;;;;;9.48;6.85;;;;;;;2.60;83.26;94163.78;1020593;29;20051;-72
2021/01/22 01:17:26;;;;;;;10.23;7.35;;;;;;;2.60;83.56;94171.63;1024750;28;20059;-70
2021/01/22 01:17:56;;;;;;;9.52;7.50;;;;;;;2.59;83.26;94167.44;1028090;28;20034;-71
2021/01/22 01:18:28;;;;;;;9.68;7.55;;;;;;;2.50;83.76;94162.00;1027949;28;20435;-70
2021/01/22 01:18:59;;;;;;;10.23;7.53;;;;;;;2.57;83.64;94169.53;1024159;28;20310;-73
2021/01/22 01:19:31;;;;;;;9.10;7.40;;;;;;;2.55;83.40;94159.34;1024241;29;20122;-70
2021/01/22 01:20:03;;;;;;;10.23;8.30;;;;;;;2.51;83.68;94160.16;1024577;28;20782;-69
2021/01/22 01:20:34;;;;;;;10.27;7.20;;;;;;;2.57;83.58;94154.63;1020935;29;20311;-71
2021/01/22 01:21:06;;;;;;;8.73;7.00;;;;;;;2.63;83.86;94159.84;1024372;29;20283;-70
2021/01/22 01:21:37;;;;;;;8.95;7.07;;;;;;;2.52;83.55;94159.13;1020510;29;20647;-70
2021/01/22 01:22:07;;;;;;;9.27;7.10;;;;;;;2.52;83.75;94159.91;1021333;28;20353;-71
2021/01/22 01:22:38;;;;;;;9.18;7.25;;;;;;;2.49;83.92;94155.19;1028410;28;20014;-69
2021/01/22 01:23:14;;;;;;;9.57;6.88;;;;;;;2.43;84.23;94158.09;1028499;28;20353;-70
2021/01/22 01:23:45;;;;;;;10.45;7.85;;;;;;;2.40;84.44;94151.59;1028171;28;20025;-70
2021/01/22 01:24:15;;;;;;;10.02;8.13;;;;;;;2.36;84.28;94156.56;1028419;28;20277;-71
2021/01/22 01:24:49;;;;;;;11.02;7.20;;;;;;;2.34;84.02;94153.44;1028155;28;20066;-70
2021/01/22 01:25:24;;;;;;;9.30;7.38;;;;;;;2.37;84.20;94158.09;1028477;28;20027;-70
2021/01/22 01:25:56;;;;;;;9.75;7.28;;;;;;;2.44;84.30;94151.81;1032614;28;20261;-72
2021/01/22 01:26:26;;;;;;;10.00;7.18;;;;;;;2.44;84.31;94152.63;1024272;29;20261;-70
2021/01/22 01:27:00;;;;;;;8.57;6.82;;;;;;;2.36;84.18;94143.50;1020176;29;20020;-70
2021/01/22 01:27:30;;;;;;;11.07;7.38;;;;;;;2.42;84.20;94154.72;1012486;29;20105;-71
2021/01/22 01:28:04;;;;;;;9.20;7.00;;;;;;;2.44;84.20;94157.03;1020419;29;20286;-74
2021/01/22 01:28:35;;;;;;;10.40;7.28;;;;;;;2.43;84.34;94155.50;1012603;29;20039;-76
2021/01/22 01:29:05;;;;;;;9.57;7.07;;;;;;;2.39;84.64;94150.00;1013442;29;20762;-69
2021/01/22 01:29:37;;;;;;;10.10;7.20;;;;;;;2.37;84.36;94158.09;1013052;29;20024;-70
2021/01/22 01:30:11;;;;;;;9.07;7.32;;;;;;;2.36;84.35;94156.56;1016198;29;20051;-71
2021/01/22 01:30:41;;;;;;;13.20;7.35;;;;;;;2.43;84.20;94161.47;1016327;29;20840;-71
2021/01/22 01:31:14;;;;;;;10.35;7.35;;;;;;;2.47;84.65;94159.91;1018352;28;20280;-70
2021/01/22 01:31:44;;;;;;;9.20;7.47;;;;;;;2.46;84.41;94149.72;1028270;28;20374;-70
2021/01/22 01:32:15;;;;;;;9.38;7.72;;;;;;;2.40;84.71;94159.44;1028235;28;20325;-71
2021/01/22 01:32:46;;;;;;;9.23;6.97;;;;;;;2.33;85.29;94156.31;1020710;29;20083;-71
2021/01/22 01:33:17;;;;;;;9.15;7.63;;;;;;;2.35;84.90;94156.81;1016273;29;20036;-69
2021/01/22 01:33:47;;;;;;;9.60;7.72;;;;;;;2.28;85.05;94166.75;1016009;29;20135;-71
2021/01/22 01:34:18;;;;;;;11.57;7.40;;;;;;;2.28;85.55;94174.56;1016197;29;20024;-72
2021/01/22 01:34:49;;;;;;;10.30;7.30;;;;;;;2.27;85.92;94167.81;1012547;29;20017;-69
2021/01/22 01:35:24;;;;;;;11.65;8.05;;;;;;;2.25;85.95;94170.69;1013024;29;20067;-70
2021/01/22 01:35:55;;;;;;;11.65;8.25;;;;;;;2.23;85.85;94164.16;1017194;29;20264;-72
2021/01/22 01:36:27;;;;;;;9.20;7.10;;;;;;;2.22;85.57;94159.97;1013251;29;20261;-71
2021/01/22 01:36:59;;;;;;;8.85;7.00;;;;;;;2.29;85.02;94157.88;1008557;29;20023;-70
2021/01/22 01:37:31;;;;;;;9.90;7.07;;;;;;;2.26;85.09;94156.59;1012087;29;20265;-70
2021/01/22 01:38:02;;;;;;;10.95;7.35;;;;;;;2.30;85.23;94157.63;1016341;29;20261;-70
2021/01/22 01:38:32;;;;;;;9.60;7.30;;;;;;;2.30;85.12;94155.03;1017519;29;20249;-71
2021/01/22 01:39:03;;;;;;;9.88;7.10;;;;;;;2.30;84.79;94155.03;1016748;29;20272;-71
2021/01/22 01:39:34;;;;;;;8.85;7.05;;;;;;;2.25;85.13;94156.84;1020628;29;20462;-71
2021/01/22 01:40:05;;;;;;;9.57;6.90;;;;;;;2.25;85.69;94162.84;1020419;29;20023;-72
2021/01/22 01:40:35;;;;;;;8.07;6.80;;;;;;;2.21;86.06;94158.44;1016666;29;20027;-70
2021/01/22 01:41:06;;;;;;;8.57;6.72;;;;;;;2.25;86.03;94159.47;1015994;29;20283;-71
2021/01/22 01:41:38;;;;;;;8.57;6.78;;;;;;;2.26;85.96;94161.00;1015801;29;20075;-71
2021/01/22 01:42:10;;;;;;;9.05;6.88;;;;;;;2.24;86.23;94152.66;1019304;29;20067;-70
2021/01/22 01:42:40;;;;;;;9.98;6.82;;;;;;;2.21;86.35;94148.78;1020765;29;20323;-75
2021/01/22 01:43:11;;;;;;;8.38;6.25;;;;;;;2.23;86.55;94145.91;1013033;29;20328;-76
2021/01/22 01:43:42;;;;;;;10.63;6.97;;;;;;;2.21;86.72;94154.00;1020384;29;20028;-74
2021/01/22 01:44:13;;;;;;;9.07;7.28;;;;;;;2.09;87.00;94143.06;1016454;29;20433;-74
2021/01/22 01:44:43;;;;;;;9.48;7.10;;;;;;;2.08;87.31;94152.72;1016330;29;20268;-74
2021/01/22 01:45:16;;;;;;;9.05;7.47;;;;;;;2.11;87.02;94152.19;1016591;29;20457;-76
2021/01/22 01:45:46;;;;;;;9.15;6.80;;;;;;;2.14;86.82;94159.50;1012720;29;20036;-74
2021/01/22 01:46:17;;;;;;;8.43;6.53;;;;;;;2.19;86.70;94158.69;1017422;29;20260;-77
2021/01/22 01:46:49;;;;;;;10.10;6.50;;;;;;;2.19;86.73;94153.47;1024736;29;20403;-78
2021/01/22 01:47:22;;;;;;;8.63;6.47;;;;;;;2.26;86.62;94153.19;1025716;28;20287;-78
2021/01/22 01:47:52;;;;;;;10.88;6.18;;;;;;;2.30;86.09;94151.59;1032618;28;20269;-77
2021/01/22 01:48:24;;;;;;;8.35;5.97;;;;;;;2.35;85.86;94154.97;1032282;28;20033;-76
2021/01/22 01:48:55;;;;;;;7.07;5.60;;;;;;;2.37;85.64;94150.28;1032684;28;20028;-76
2021/01/22 01:49:25;;;;;;;7.80;5.60;;;;;;;2.49;84.90;94147.38;1028326;28;20266;-77
2021/01/22 01:49:55;;;;;;;7.28;6.10;;;;;;;2.58;84.76;94150.22;1024301;29;20259;-74
2021/01/22 01:50:26;;;;;;;8.57;5.85;;;;;;;2.66;84.19;94148.88;1020300;29;20481;-76
2021/01/22 01:50:56;;;;;;;9.18;6.22;;;;;;;2.67;84.33;94147.81;1016350;29;20549;-77
2021/01/22 01:51:27;;;;;;;9.00;5.82;;;;;;;2.66;84.48;94148.88;1020754;29;20039;-76
2021/01/22 01:51:57;;;;;;;7.72;5.45;;;;;;;2.67;84.19;94151.19;1020668;29;20027;-77
2021/01/22 01:52:28;;;;;;;5.93;5.18;;;;;;;2.69;84.04;94143.88;1016424;29;20027;-78
2021/01/22 01:53:00;;;;;;;6.07;5.35;;;;;;;2.72;83.96;94153.03;1016241;29;20036;-77
2021/01/22 01:53:31;;;;;;;9.68;5.95;;;;;;;2.72;84.24;94150.41;1017230;29;20028;-79
2021/01/22 01:54:02;;;;;;;7.85;5.78;;;;;;;2.73;84.26;94151.97;1017440;29;20329;-76
2021/01/22 01:54:33;;;;;;;8.15;5.28;;;;;;;2.75;84.18;94149.88;1020602;29;20272;-79
2021/01/22 01:55:05;;;;;;;7.07;4.90;;;;;;;2.77;84.10;94153.00;1020765;29;20019;-79
2021/01/22 01:55:35;;;;;;;6.90;4.75;;;;;;;2.78;83.80;94147.50;1021562;28;20051;-77
2021/01/22 01:56:06;;;;;;;6.95;5.50;;;;;;;2.78;83.87;94144.88;1028406;28;20603;-77
2021/01/22 01:56:37;;;;;;;7.95;5.32;;;;;;;2.77;83.67;94132.09;1028628;28;20030;-78
2021/01/22 01:57:07;;;;;;;7.40;5.53;;;;;;;2.72;83.85;94130.28;1024779;28;20071;-77
2021/01/22 01:57:38;;;;;;;5.47;4.80;;;;;;;2.81;83.77;94140.94;1024965;29;20491;-77
2021/01/22 01:58:12;;;;;;;7.38;4.95;;;;;;;2.83;83.51;94135.47;1020902;29;20433;-79
2021/01/22 01:58:44;;;;;;;8.10;4.95;;;;;;;2.85;83.33;94139.34;1017283;29;20020;-79
2021/01/22 01:59:14;;;;;;;6.65;4.63;;;;;;;2.88;83.33;94138.84;1017392;29;20264;-77
2021/01/22 01:59:45;;;;;;;6.45;4.90;;;;;;;2.89;83.42;94135.16;1021500;29;20510;-76
2021/01/22 02:00:16;;;;;;;7.43;5.03;;;;;;;2.92;82.81;94133.84;1025083;28;20054;-76
2021/01/22 02:00:48;;;;;;;6.90;4.72;;;;;;;2.90;83.08;94130.72;1021142;29;20270;-79
2021/01/22 02:01:20;;;;;;;6.88;4.95;;;;;;;2.92;82.99;94136.47;1020897;29;20477;-77
2021/01/22 02:01:51;;;;;;;6.88;4.93;;;;;;;2.92;83.29;94129.41;1020906;29;20255;-79
2021/01/22 02:02:24;;;;;;;7.55;4.63;;;;;;;2.97;82.67;94121.53;1017889;29;20039;-78
2021/01/22 02:02:55;;;;;;;7.20;5.00;;;;;;;2.97;82.75;94121.53;1016747;29;20051;-78
2021/01/22 02:03:26;;;;;;;7.10;4.78;;;;;;;3.07;82.21;94122.50;1016215;29;20811;-76
2021/01/22 02:03:56;;;;;;;6.55;4.70;;;;;;;3.07;82.52;94131.16;1021496;29;20028;-78
2021/01/22 02:04:28;;;;;;;8.20;5.07;;;;;;;3.02;82.57;94130.41;1025041;28;20019;-77
2021/01/22 02:05:00;;;;;;;5.60;4.63;;;;;;;3.06;82.75;94123.56;1024977;28;20094;-78
2021/01/22 02:05:31;;;;;;;7.25;4.75;;;;;;;3.00;83.18;94127.28;1024653;28;20298;-78
2021/01/22 02:06:05;;;;;;;5.35;3.88;;;;;;;3.00;83.12;94128.06;1028969;28;20262;-79
2021/01/22 02:06:36;;;;;;;7.50;5.60;;;;;;;2.95;83.24;94123.66;1024771;29;20027;-76
2021/01/22 02:07:07;;;;;;;7.13;4.82;;;;;;;2.92;83.93;94120.78;1021326;29;20303;-78
2021/01/22 02:07:38;;;;;;;7.80;5.05;;;;;;;2.90;83.78;94125.50;1024778;29;20514;-79
2021/01/22 02:08:09;;;;;;;6.72;4.82;;;;;;;2.87;84.04;94121.59;1021148;29;20286;-78
2021/01/22 02:08:39;;;;;;;5.97;4.45;;;;;;;2.89;83.70;94129.16;1021215;28;20027;-76
2021/01/22 02:09:10;;;;;;;6.00;4.35;;;;;;;2.91;83.37;94125.22;1024454;29;20031;-75
2021/01/22 02:09:40;;;;;;;7.18;4.10;;;;;;;2.97;83.11;94123.34;1024611;28;20492;-76
2021/01/22 02:10:11;;;;;;;6.20;4.30;;;;;;;3.03;82.81;94119.66;1027929;28;20105;-78
2021/01/22 02:10:41;;;;;;;6.18;3.85;;;;;;;3.11;82.43;94120.91;1028803;28;20109;-77
2021/01/22 02:11:12;;;;;;;5.68;4.15;;;;;;;3.14;81.95;94120.38;1037199;28;20014;-78
2021/01/22 02:11:43;;;;;;;3.97;3.53;;;;;;;3.15;82.07;94121.94;1032588;28;20025;-77
2021/01/22 02:12:14;;;;;;;6.47;3.95;;;;;;;3.19;81.86;94117.72;1024559;29;20023;-76
2021/01/22 02:12:44;;;;;;;5.85;4.10;;;;;;;3.14;82.01;94110.69;1020509;29;20362;-77
2021/01/22 02:13:15;;;;;;;5.95;4.47;;;;;;;3.18;82.11;94119.56;1020784;29;20064;-78
2021/01/22 02:13:46;;;;;;;6.70;4.25;;;;;;;3.15;82.27;94120.13;1016478;29;20120;-71
2021/01/22 02:14:16;;;;;;;5.35;4.40;;;;;;;3.13;82.30;94121.41;1016298;29;20099;-71
2021/01/22 02:14:47;;;;;;;5.50;4.13;;;;;;;3.14;82.41;94123.78;1016341;29;20032;-75
2021/01/22 02:15:17;;;;;;;6.05;3.83;;;;;;;3.15;81.99;94120.13;1020631;28;20016;-70
2021/01/22 02:15:48;;;;;;;5.97;3.80;;;;;;;3.15;81.95;94120.13;1028344;28;20078;-71
2021/01/22 02:16:21;;;;;;;4.97;4.07;;;;;;;3.12;82.35;94119.88;1032304;28;20121;-71
2021/01/22 02:16:52;;;;;;;4.97;3.90;;;;;;;3.15;82.45;94111.47;1032169;28;20340;-71
2021/01/22 02:17:23;;;;;;;5.60;3.55;;;;;;;3.21;81.65;94110.41;1024071;29;20623;-71
2021/01/22 02:17:53;;;;;;;6.25;3.28;;;;;;;3.22;81.85;94109.34;1020100;29;20267;-71
2021/01/22 02:18:24;;;;;;;4.72;3.35;;;;;;;3.26;81.51;94112.97;1023777;29;20019;-70
2021/01/22 02:18:58;;;;;;;5.18;3.63;;;;;;;3.32;80.84;94108.50;1019895;29;20040;-71
2021/01/22 02:19:44;;;;;;;4.57;3.75;;;;;;;3.35;81.18;94116.56;1020622;29;20040;-70
2021/01/22 02:20:24;;;;;;;4.43;3.40;;;;;;;3.35;81.44;94116.56;1020066;29;20299;-72
2021/01/22 02:21:30;;;;;;;4.97;3.50;;;;;;;3.31;81.57;94106.91;1016345;29;20321;-70
2021/01/22 02:22:00;;;;;;;6.53;3.88;;;;;;;3.22;82.10;94113.81;1020056;29;20829;-71
2021/01/22 02:22:31;;;;;;;5.00;3.30;;;;;;;3.22;81.80;94111.19;1025596;28;20286;-71
2021/01/22 02:23:01;;;;;;;5.85;4.13;;;;;;;3.22;82.14;94111.97;1032027;28;20451;-71
2021/01/22 02:23:33;;;;;;;5.10;3.65;;;;;;;3.24;82.00;94112.47;1024285;28;20114;-71
2021/01/22 02:24:18;;;;;;;4.43;3.00;;;;;;;3.30;81.31;94115.81;1024076;29;20075;-71
2021/01/22 02:24:50;;;;;;;5.05;3.58;;;;;;;3.36;81.31;94114.72;1024031;28;20266;-71
2021/01/22 02:25:22;;;;;;;5.18;3.70;;;;;;;3.30;81.93;94115.81;1026377;28;20305;-70
2021/01/22 02:26:08;;;;;;;5.95;3.75;;;;;;;3.29;82.07;94119.47;1030536;28;20306;-73
2021/01/22 02:26:50;;;;;;;3.85;2.95;;;;;;;3.30;81.77;94118.44;1028021;28;20266;-69
2021/01/22 02:27:20;;;;;;;6.35;3.30;;;;;;;3.30;81.79;94113.97;1024102;29;20366;-70
2021/01/22 02:27:52;;;;;;;4.85;3.40;;;;;;;3.31;81.52;94123.41;1019598;29;20291;-70
2021/01/22 02:28:23;;;;;;;5.00;3.53;;;;;;;3.32;81.32;94119.72;1023742;29;20026;-72
2021/01/22 02:29:00;;;;;;;5.13;3.10;;;;;;;3.37;81.37;94118.91;1016254;29;20765;-69
2021/01/22 02:29:31;;;;;;;4.38;3.10;;;;;;;3.38;81.38;94121.25;1020322;29;20019;-72